sensor_id;sensor_type;location;lat;lon;timestamp;pressure;altitude;pressure_sealevel;temperature;humidity
45621;BME280;31345;51.522;10.702;2023-09-18T00:02:05;98687.28;;;16.83;100.00
45621;BME280;31345;51.522;10.702;2023-09-18T00:04:37;98682.84;;;16.84;100.00
45621;BME280;31345;51.522;10.702;2023-09-18T00:07:10;98679.06;;;16.87;100.00
45621;BME280;31345;51.522;10.702;2023-09-18T00:09:43;98667.22;;;16.91;100.00
45621;BME280;31345;51.522;10.702;2023-09-18T00:12:12;98663.00;;;16.80;100.00
45621;BME280;31345;51.522;10.702;2023-09-18T00:14:47;98659.94;;;16.84;100.00
45621;BME280;31345;51.522;10.702;2023-09-18T00:17:20;98658.72;;;16.79;100.00
45621;BME280;31345;51.522;10.702;2023-09-18T00:19:55;98654.34;;;16.69;100.00
45621;BME280;31345;51.522;10.702;2023-09-18T00:22:27;98656.22;;;16.77;100.00
45621;BME280;31345;51.522;10.702;2023-09-18T00:25:00;98653.44;;;16.79;100.00
45621;BME280;31345;51.522;10.702;2023-09-18T00:27:35;98651.75;;;16.78;100.00
45621;BME280;31345;51.522;10.702;2023-09-18T00:30:08;98642.03;;;16.78;100.00
45621;BME280;31345;51.522;10.702;2023-09-18T00:32:41;98646.47;;;16.78;100.00
45621;BME280;31345;51.522;10.702;2023-09-18T00:35:13;98636.63;;;16.80;100.00
45621;BME280;31345;51.522;10.702;2023-09-18T00:37:46;98636.00;;;16.86;100.00
45621;BME280;31345;51.522;10.702;2023-09-18T00:40:19;98627.34;;;16.76;100.00
45621;BME280;31345;51.522;10.702;2023-09-18T00:42:53;98620.25;;;16.76;100.00
45621;BME280;31345;51.522;10.702;2023-09-18T00:45:40;98617.28;;;16.79;100.00
45621;BME280;31345;51.522;10.702;2023-09-18T00:48:14;98614.38;;;16.64;100.00
45621;BME280;31345;51.522;10.702;2023-09-18T00:50:48;98611.81;;;16.72;100.00
45621;BME280;31345;51.522;10.702;2023-09-18T00:53:22;98603.88;;;16.72;100.00
45621;BME280;31345;51.522;10.702;2023-09-18T00:55:58;98599.50;;;16.81;100.00
45621;BME280;31345;51.522;10.702;2023-09-18T00:58:34;98593.31;;;16.72;100.00
45621;BME280;31345;51.522;10.702;2023-09-18T01:01:08;98592.88;;;16.77;100.00
45621;BME280;31345;51.522;10.702;2023-09-18T01:03:42;98590.75;;;16.81;100.00
45621;BME280;31345;51.522;10.702;2023-09-18T01:06:14;98582.00;;;16.80;100.00
45621;BME280;31345;51.522;10.702;2023-09-18T01:08:47;98579.31;;;16.72;100.00
45621;BME280;31345;51.522;10.702;2023-09-18T01:11:30;98576.69;;;16.72;100.00
45621;BME280;31345;51.522;10.702;2023-09-18T01:14:10;98570.72;;;16.70;100.00
45621;BME280;31345;51.522;10.702;2023-09-18T01:16:50;98572.66;;;16.68;100.00
45621;BME280;31345;51.522;10.702;2023-09-18T01:19:35;98571.41;;;16.72;100.00
45621;BME280;31345;51.522;10.702;2023-09-18T01:22:09;98564.09;;;16.66;100.00
45621;BME280;31345;51.522;10.702;2023-09-18T01:24:39;98571.41;;;16.72;100.00
45621;BME280;31345;51.522;10.702;2023-09-18T01:27:13;98566.63;;;16.76;100.00
45621;BME280;31345;51.522;10.702;2023-09-18T01:29:48;98558.44;;;16.61;100.00
45621;BME280;31345;51.522;10.702;2023-09-18T01:32:22;98565.00;;;16.56;100.00
45621;BME280;31345;51.522;10.702;2023-09-18T01:35:00;98567.66;;;16.56;100.00
45621;BME280;31345;51.522;10.702;2023-09-18T01:37:33;98565.97;;;16.55;100.00
45621;BME280;31345;51.522;10.702;2023-09-18T01:40:09;98567.78;;;16.55;100.00
45621;BME280;31345;51.522;10.702;2023-09-18T01:42:43;98559.88;;;16.55;100.00
45621;BME280;31345;51.522;10.702;2023-09-18T01:45:15;98557.03;;;16.48;100.00
45621;BME280;31345;51.522;10.702;2023-09-18T01:47:48;98556.06;;;16.31;100.00
45621;BME280;31345;51.522;10.702;2023-09-18T01:50:21;98566.59;;;16.31;100.00
45621;BME280;31345;51.522;10.702;2023-09-18T01:52:53;98556.88;;;16.31;100.00
45621;BME280;31345;51.522;10.702;2023-09-18T01:55:27;98561.25;;;16.41;100.00
45621;BME280;31345;51.522;10.702;2023-09-18T01:58:01;98553.94;;;16.35;100.00
45621;BME280;31345;51.522;10.702;2023-09-18T02:00:34;98542.53;;;16.16;100.00
45621;BME280;31345;51.522;10.702;2023-09-18T02:03:07;98531.00;;;15.99;100.00
45621;BME280;31345;51.522;10.702;2023-09-18T02:05:40;98538.00;;;16.08;100.00
45621;BME280;31345;51.522;10.702;2023-09-18T02:08:12;98530.94;;;16.08;100.00
45621;BME280;31345;51.522;10.702;2023-09-18T02:10:46;98538.38;;;16.13;100.00
45621;BME280;31345;51.522;10.702;2023-09-18T02:13:19;98538.22;;;16.15;100.00
45621;BME280;31345;51.522;10.702;2023-09-18T02:15:52;98542.00;;;15.94;100.00
45621;BME280;31345;51.522;10.702;2023-09-18T02:18:26;98541.00;;;15.95;100.00
45621;BME280;31345;51.522;10.702;2023-09-18T02:20:58;98538.00;;;15.90;100.00
45621;BME280;31345;51.522;10.702;2023-09-18T02:23:31;98532.94;;;15.97;100.00
45621;BME280;31345;51.522;10.702;2023-09-18T02:26:05;98530.47;;;15.95;100.00
45621;BME280;31345;51.522;10.702;2023-09-18T02:28:37;98531.00;;;15.99;100.00
45621;BME280;31345;51.522;10.702;2023-09-18T02:31:10;98531.16;;;15.97;100.00
45621;BME280;31345;51.522;10.702;2023-09-18T02:33:38;98536.22;;;16.08;100.00
45621;BME280;31345;51.522;10.702;2023-09-18T02:36:10;98535.53;;;16.06;100.00
45621;BME280;31345;51.522;10.702;2023-09-18T02:38:43;98530.63;;;16.12;100.00
45621;BME280;31345;51.522;10.702;2023-09-18T02:41:17;98529.19;;;15.99;100.00
45621;BME280;31345;51.522;10.702;2023-09-18T02:43:51;98529.94;;;15.91;100.00
45621;BME280;31345;51.522;10.702;2023-09-18T02:46:24;98529.41;;;15.88;100.00
45621;BME280;31345;51.522;10.702;2023-09-18T02:48:57;98526.03;;;15.95;100.00
45621;BME280;31345;51.522;10.702;2023-09-18T02:51:30;98519.91;;;15.95;100.00
45621;BME280;31345;51.522;10.702;2023-09-18T02:54:04;98520.53;;;15.89;100.00
45621;BME280;31345;51.522;10.702;2023-09-18T02:56:39;98507.66;;;15.86;100.00
45621;BME280;31345;51.522;10.702;2023-09-18T02:59:12;98506.94;;;15.84;100.00
45621;BME280;31345;51.522;10.702;2023-09-18T03:01:40;98504.63;;;15.80;100.00
45621;BME280;31345;51.522;10.702;2023-09-18T03:04:13;98505.31;;;15.82;100.00
45621;BME280;31345;51.522;10.702;2023-09-18T03:06:45;98495.53;;;15.75;100.00
45621;BME280;31345;51.522;10.702;2023-09-18T03:09:18;98487.75;;;15.73;100.00
45621;BME280;31345;51.522;10.702;2023-09-18T03:11:52;98489.41;;;15.74;100.00
45621;BME280;31345;51.522;10.702;2023-09-18T03:14:25;98492.34;;;15.71;100.00
45621;BME280;31345;51.522;10.702;2023-09-18T03:16:58;98492.75;;;15.76;100.00
45621;BME280;31345;51.522;10.702;2023-09-18T03:19:31;98485.56;;;15.68;100.00
45621;BME280;31345;51.522;10.702;2023-09-18T03:22:04;98482.25;;;15.66;100.00
45621;BME280;31345;51.522;10.702;2023-09-18T03:24:31;98477.81;;;15.67;100.00
45621;BME280;31345;51.522;10.702;2023-09-18T03:27:06;98478.94;;;15.64;100.00
45621;BME280;31345;51.522;10.702;2023-09-18T03:29:39;98472.16;;;15.62;100.00
45621;BME280;31345;51.522;10.702;2023-09-18T03:32:12;98477.56;;;15.60;100.00
45621;BME280;31345;51.522;10.702;2023-09-18T03:34:45;98468.84;;;15.60;100.00
45621;BME280;31345;51.522;10.702;2023-09-18T03:37:18;98474.28;;;15.58;100.00
45621;BME280;31345;51.522;10.702;2023-09-18T03:39:51;98462.59;;;15.61;100.00
45621;BME280;31345;51.522;10.702;2023-09-18T03:42:25;98462.19;;;15.55;100.00
45621;BME280;31345;51.522;10.702;2023-09-18T03:44:58;98451.78;;;15.64;100.00
45621;BME280;31345;51.522;10.702;2023-09-18T03:47:31;98433.91;;;15.58;100.00
45621;BME280;31345;51.522;10.702;2023-09-18T03:49:59;98430.59;;;15.55;100.00
45621;BME280;31345;51.522;10.702;2023-09-18T03:52:32;98423.53;;;15.56;100.00
45621;BME280;31345;51.522;10.702;2023-09-18T03:55:05;98415.19;;;15.61;100.00
45621;BME280;31345;51.522;10.702;2023-09-18T03:57:42;98408.22;;;15.60;100.00
45621;BME280;31345;51.522;10.702;2023-09-18T04:00:16;98406.22;;;15.53;100.00
45621;BME280;31345;51.522;10.702;2023-09-18T04:02:49;98403.66;;;15.62;100.00
45621;BME280;31345;51.522;10.702;2023-09-18T04:05:21;98404.34;;;15.64;100.00
45621;BME280;31345;51.522;10.702;2023-09-18T04:07:54;98409.97;;;15.69;100.00
45621;BME280;31345;51.522;10.702;2023-09-18T04:10:27;98415.91;;;15.71;100.00
45621;BME280;31345;51.522;10.702;2023-09-18T04:13:01;98415.75;;;15.73;100.00
45621;BME280;31345;51.522;10.702;2023-09-18T04:15:33;98418.19;;;15.66;100.00
45621;BME280;31345;51.522;10.702;2023-09-18T04:18:08;98393.41;;;15.59;100.00
45621;BME280;31345;51.522;10.702;2023-09-18T04:20:41;98397.03;;;15.58;100.00
45621;BME280;31345;51.522;10.702;2023-09-18T04:23:18;98387.56;;;15.65;100.00
45621;BME280;31345;51.522;10.702;2023-09-18T04:25:53;98398.97;;;15.74;100.00
45621;BME280;31345;51.522;10.702;2023-09-18T04:28:28;98395.53;;;15.73;100.00
45621;BME280;31345;51.522;10.702;2023-09-18T04:31:00;98391.84;;;15.66;100.00
45621;BME280;31345;51.522;10.702;2023-09-18T04:33:33;98381.88;;;15.60;100.00
45621;BME280;31345;51.522;10.702;2023-09-18T04:36:06;98370.53;;;15.59;100.00
45621;BME280;31345;51.522;10.702;2023-09-18T04:38:39;98367.69;;;15.52;100.00
45621;BME280;31345;51.522;10.702;2023-09-18T04:41:11;98364.56;;;15.57;100.00
45621;BME280;31345;51.522;10.702;2023-09-18T04:43:47;98366.06;;;15.60;100.00
45621;BME280;31345;51.522;10.702;2023-09-18T04:46:20;98362.25;;;15.54;100.00
45621;BME280;31345;51.522;10.702;2023-09-18T04:48:53;98347.97;;;15.38;100.00
45621;BME280;31345;51.522;10.702;2023-09-18T04:51:25;98329.38;;;15.40;100.00
45621;BME280;31345;51.522;10.702;2023-09-18T04:53:58;98327.63;;;15.30;100.00
45621;BME280;31345;51.522;10.702;2023-09-18T04:56:30;98325.41;;;15.36;100.00
45621;BME280;31345;51.522;10.702;2023-09-18T04:59:00;98326.91;;;15.38;100.00
45621;BME280;31345;51.522;10.702;2023-09-18T05:01:33;98328.03;;;15.36;100.00
45621;BME280;31345;51.522;10.702;2023-09-18T05:04:05;98314.75;;;15.27;100.00
45621;BME280;31345;51.522;10.702;2023-09-18T05:06:38;98313.81;;;15.28;100.00
45621;BME280;31345;51.522;10.702;2023-09-18T05:09:13;98324.00;;;15.32;100.00
45621;BME280;31345;51.522;10.702;2023-09-18T05:11:46;98325.63;;;15.24;100.00
45621;BME280;31345;51.522;10.702;2023-09-18T05:14:21;98330.19;;;15.22;100.00
45621;BME280;31345;51.522;10.702;2023-09-18T05:16:54;98346.59;;;15.16;100.00
45621;BME280;31345;51.522;10.702;2023-09-18T05:19:26;98378.03;;;15.17;100.00
45621;BME280;31345;51.522;10.702;2023-09-18T05:22:00;98387.00;;;15.25;100.00
45621;BME280;31345;51.522;10.702;2023-09-18T05:24:32;98373.44;;;15.20;100.00
45621;BME280;31345;51.522;10.702;2023-09-18T05:27:05;98369.78;;;15.30;100.00
45621;BME280;31345;51.522;10.702;2023-09-18T05:29:39;98358.19;;;15.41;100.00
45621;BME280;31345;51.522;10.702;2023-09-18T05:32:13;98352.16;;;15.49;100.00
45621;BME280;31345;51.522;10.702;2023-09-18T05:34:45;98346.91;;;15.49;100.00
45621;BME280;31345;51.522;10.702;2023-09-18T05:37:18;98347.63;;;15.60;100.00
45621;BME280;31345;51.522;10.702;2023-09-18T05:39:50;98348.38;;;15.70;100.00
45621;BME280;31345;51.522;10.702;2023-09-18T05:42:23;98363.59;;;15.76;100.00
45621;BME280;31345;51.522;10.702;2023-09-18T05:44:57;98350.34;;;15.86;100.00
45621;BME280;31345;51.522;10.702;2023-09-18T05:47:29;98335.22;;;15.97;100.00
45621;BME280;31345;51.522;10.702;2023-09-18T05:50:03;98329.50;;;16.01;100.00
45621;BME280;31345;51.522;10.702;2023-09-18T05:52:37;98328.56;;;16.11;100.00
45621;BME280;31345;51.522;10.702;2023-09-18T05:55:11;98319.09;;;16.26;100.00
45621;BME280;31345;51.522;10.702;2023-09-18T05:57:44;98308.34;;;16.46;100.00
45621;BME280;31345;51.522;10.702;2023-09-18T06:00:18;98305.72;;;16.54;100.00
45621;BME280;31345;51.522;10.702;2023-09-18T06:02:50;98300.59;;;16.53;100.00
45621;BME280;31345;51.522;10.702;2023-09-18T06:05:23;98296.19;;;16.62;100.00
45621;BME280;31345;51.522;10.702;2023-09-18T06:07:56;98306.47;;;16.81;100.00
45621;BME280;31345;51.522;10.702;2023-09-18T06:10:28;98310.13;;;16.89;100.00
45621;BME280;31345;51.522;10.702;2023-09-18T06:13:01;98308.69;;;17.03;100.00
45621;BME280;31345;51.522;10.702;2023-09-18T06:15:36;98300.09;;;17.09;100.00
45621;BME280;31345;51.522;10.702;2023-09-18T06:18:09;98303.56;;;17.18;100.00
45621;BME280;31345;51.522;10.702;2023-09-18T06:20:41;98299.63;;;17.22;100.00
45621;BME280;31345;51.522;10.702;2023-09-18T06:23:19;98297.47;;;17.26;100.00
45621;BME280;31345;51.522;10.702;2023-09-18T06:25:58;98294.19;;;17.32;100.00
45621;BME280;31345;51.522;10.702;2023-09-18T06:28:34;98296.81;;;17.32;100.00
45621;BME280;31345;51.522;10.702;2023-09-18T06:31:04;98287.91;;;17.33;100.00
45621;BME280;31345;51.522;10.702;2023-09-18T06:33:37;98275.19;;;17.36;100.00
45621;BME280;31345;51.522;10.702;2023-09-18T06:36:10;98260.66;;;17.41;100.00
45621;BME280;31345;51.522;10.702;2023-09-18T06:38:42;98259.69;;;17.50;100.00
45621;BME280;31345;51.522;10.702;2023-09-18T06:41:15;98259.03;;;17.56;100.00
45621;BME280;31345;51.522;10.702;2023-09-18T06:43:47;98267.44;;;17.68;100.00
45621;BME280;31345;51.522;10.702;2023-09-18T06:46:21;98267.41;;;17.77;100.00
45621;BME280;31345;51.522;10.702;2023-09-18T06:48:54;98259.31;;;17.86;100.00
45621;BME280;31345;51.522;10.702;2023-09-18T06:51:27;98249.88;;;17.92;100.00
45621;BME280;31345;51.522;10.702;2023-09-18T06:53:59;98251.69;;;17.92;100.00
45621;BME280;31345;51.522;10.702;2023-09-18T06:56:33;98247.22;;;17.92;100.00
45621;BME280;31345;51.522;10.702;2023-09-18T06:59:06;98235.16;;;17.90;100.00
45621;BME280;31345;51.522;10.702;2023-09-18T07:01:40;98230.34;;;17.93;100.00
45621;BME280;31345;51.522;10.702;2023-09-18T07:04:13;98235.97;;;17.98;100.00
45621;BME280;31345;51.522;10.702;2023-09-18T07:06:46;98241.56;;;18.04;100.00
45621;BME280;31345;51.522;10.702;2023-09-18T07:09:19;98234.28;;;18.06;100.00
45621;BME280;31345;51.522;10.702;2023-09-18T07:11:54;98236.94;;;18.06;100.00
45621;BME280;31345;51.522;10.702;2023-09-18T07:14:27;98227.50;;;18.03;100.00
45621;BME280;31345;51.522;10.702;2023-09-18T07:17:01;98229.84;;;17.98;100.00
45621;BME280;31345;51.522;10.702;2023-09-18T07:19:33;98224.91;;;17.95;100.00
45621;BME280;31345;51.522;10.702;2023-09-18T07:22:06;98230.03;;;17.96;100.00
45621;BME280;31345;51.522;10.702;2023-09-18T07:24:38;98225.75;;;17.95;100.00
45621;BME280;31345;51.522;10.702;2023-09-18T07:27:14;98240.59;;;17.96;100.00
45621;BME280;31345;51.522;10.702;2023-09-18T07:29:47;98240.44;;;17.98;100.00
45621;BME280;31345;51.522;10.702;2023-09-18T07:32:21;98256.59;;;18.03;100.00
45621;BME280;31345;51.522;10.702;2023-09-18T07:34:50;98258.09;;;18.06;100.00
45621;BME280;31345;51.522;10.702;2023-09-18T07:37:24;98268.34;;;18.09;100.00
45621;BME280;31345;51.522;10.702;2023-09-18T07:40:02;98271.94;;;18.16;100.00
45621;BME280;31345;51.522;10.702;2023-09-18T07:42:37;98275.91;;;18.20;100.00
45621;BME280;31345;51.522;10.702;2023-09-18T07:45:06;98287.63;;;18.26;100.00
45621;BME280;31345;51.522;10.702;2023-09-18T07:47:42;98288.44;;;18.35;100.00
45621;BME280;31345;51.522;10.702;2023-09-18T07:50:11;98296.38;;;18.35;100.00
45621;BME280;31345;51.522;10.702;2023-09-18T07:52:44;98302.44;;;18.44;100.00
45621;BME280;31345;51.522;10.702;2023-09-18T07:55:17;98295.81;;;18.48;100.00
45621;BME280;31345;51.522;10.702;2023-09-18T07:57:49;98301.94;;;18.57;100.00
45621;BME280;31345;51.522;10.702;2023-09-18T08:00:22;98301.06;;;18.64;100.00
45621;BME280;31345;51.522;10.702;2023-09-18T08:02:58;98299.53;;;18.78;100.00
45621;BME280;31345;51.522;10.702;2023-09-18T08:05:32;98308.34;;;18.94;100.00
45621;BME280;31345;51.522;10.702;2023-09-18T08:08:04;98312.13;;;19.00;100.00
45621;BME280;31345;51.522;10.702;2023-09-18T08:10:37;98317.19;;;19.10;100.00
45621;BME280;31345;51.522;10.702;2023-09-18T08:13:10;98318.25;;;19.24;100.00
45621;BME280;31345;51.522;10.702;2023-09-18T08:15:37;98311.09;;;19.33;100.00
45621;BME280;31345;51.522;10.702;2023-09-18T08:18:11;98318.50;;;19.37;100.00
45621;BME280;31345;51.522;10.702;2023-09-18T08:20:44;98318.09;;;19.49;100.00
45621;BME280;31345;51.522;10.702;2023-09-18T08:23:17;98313.72;;;19.56;100.00
45621;BME280;31345;51.522;10.702;2023-09-18T08:25:50;98319.97;;;19.63;100.00
45621;BME280;31345;51.522;10.702;2023-09-18T08:28:26;98324.56;;;19.70;100.00
45621;BME280;31345;51.522;10.702;2023-09-18T08:30:59;98321.19;;;19.76;100.00
45621;BME280;31345;51.522;10.702;2023-09-18T08:33:34;98314.53;;;19.80;100.00
45621;BME280;31345;51.522;10.702;2023-09-18T08:36:07;98304.41;;;19.84;100.00
45621;BME280;31345;51.522;10.702;2023-09-18T08:38:40;98299.47;;;19.96;100.00
45621;BME280;31345;51.522;10.702;2023-09-18T08:41:18;98293.25;;;20.03;100.00
45621;BME280;31345;51.522;10.702;2023-09-18T08:43:52;98286.66;;;20.14;100.00
45621;BME280;31345;51.522;10.702;2023-09-18T08:46:25;98280.69;;;20.12;100.00
45621;BME280;31345;51.522;10.702;2023-09-18T08:48:54;98286.84;;;20.13;100.00
45621;BME280;31345;51.522;10.702;2023-09-18T08:51:29;98285.13;;;20.05;100.00
45621;BME280;31345;51.522;10.702;2023-09-18T08:54:02;98283.34;;;20.12;100.00
45621;BME280;31345;51.522;10.702;2023-09-18T08:56:36;98271.41;;;20.16;100.00
45621;BME280;31345;51.522;10.702;2023-09-18T08:59:09;98281.00;;;20.17;100.00
45621;BME280;31345;51.522;10.702;2023-09-18T09:01:42;98277.78;;;20.22;100.00
45621;BME280;31345;51.522;10.702;2023-09-18T09:04:16;98265.25;;;20.31;100.00
45621;BME280;31345;51.522;10.702;2023-09-18T09:06:49;98279.69;;;20.43;100.00
45621;BME280;31345;51.522;10.702;2023-09-18T09:09:17;98292.22;;;20.50;100.00
45621;BME280;31345;51.522;10.702;2023-09-18T09:11:50;98295.97;;;20.55;100.00
45621;BME280;31345;51.522;10.702;2023-09-18T09:14:23;98279.59;;;20.67;100.00
45621;BME280;31345;51.522;10.702;2023-09-18T09:16:59;98301.72;;;20.89;100.00
45621;BME280;31345;51.522;10.702;2023-09-18T09:19:35;98299.78;;;21.20;99.25
45621;BME280;31345;51.522;10.702;2023-09-18T09:22:19;98291.28;;;21.53;95.53
45621;BME280;31345;51.522;10.702;2023-09-18T09:24:52;98296.81;;;21.80;96.94
45621;BME280;31345;51.522;10.702;2023-09-18T09:27:25;98286.59;;;21.84;94.24
45621;BME280;31345;51.522;10.702;2023-09-18T09:29:58;98287.53;;;21.69;94.19
45621;BME280;31345;51.522;10.702;2023-09-18T09:32:32;98282.88;;;21.50;96.46
45621;BME280;31345;51.522;10.702;2023-09-18T09:35:06;98292.69;;;21.49;97.85
45621;BME280;31345;51.522;10.702;2023-09-18T09:37:39;98304.03;;;21.58;99.10
45621;BME280;31345;51.522;10.702;2023-09-18T09:40:12;98287.09;;;21.66;97.21
45621;BME280;31345;51.522;10.702;2023-09-18T09:42:46;98275.31;;;21.75;97.16
45621;BME280;31345;51.522;10.702;2023-09-18T09:45:18;98262.84;;;21.82;96.61
45621;BME280;31345;51.522;10.702;2023-09-18T09:47:53;98266.41;;;21.96;98.17
45621;BME280;31345;51.522;10.702;2023-09-18T09:50:27;98259.97;;;22.12;95.59
45621;BME280;31345;51.522;10.702;2023-09-18T09:53:00;98262.31;;;22.36;95.39
45621;BME280;31345;51.522;10.702;2023-09-18T09:55:33;98249.16;;;22.70;95.85
45621;BME280;31345;51.522;10.702;2023-09-18T09:58:08;98242.63;;;22.86;91.24
45621;BME280;31345;51.522;10.702;2023-09-18T10:00:45;98240.56;;;22.88;88.56
45621;BME280;31345;51.522;10.702;2023-09-18T10:03:20;98236.69;;;22.90;89.03
45621;BME280;31345;51.522;10.702;2023-09-18T10:05:56;98227.06;;;22.96;86.91
45621;BME280;31345;51.522;10.702;2023-09-18T10:08:31;98240.41;;;23.17;88.30
45621;BME280;31345;51.522;10.702;2023-09-18T10:11:06;98239.84;;;23.28;86.74
45621;BME280;31345;51.522;10.702;2023-09-18T10:13:46;98241.06;;;23.66;85.32
45621;BME280;31345;51.522;10.702;2023-09-18T10:16:23;98242.63;;;23.94;85.88
45621;BME280;31345;51.522;10.702;2023-09-18T10:19:05;98242.19;;;24.04;80.94
45621;BME280;31345;51.522;10.702;2023-09-18T10:21:49;98242.34;;;24.23;80.70
45621;BME280;31345;51.522;10.702;2023-09-18T10:24:28;98238.47;;;24.25;81.42
45621;BME280;31345;51.522;10.702;2023-09-18T10:27:02;98239.03;;;24.34;80.63
45621;BME280;31345;51.522;10.702;2023-09-18T10:29:36;98233.69;;;24.41;82.20
45621;BME280;31345;51.522;10.702;2023-09-18T10:32:11;98239.16;;;24.53;81.14
45621;BME280;31345;51.522;10.702;2023-09-18T10:34:45;98234.06;;;24.44;79.84
45621;BME280;31345;51.522;10.702;2023-09-18T10:37:15;98235.56;;;24.34;77.84
45621;BME280;31345;51.522;10.702;2023-09-18T10:39:49;98244.19;;;24.29;78.64
45621;BME280;31345;51.522;10.702;2023-09-18T10:42:16;98237.66;;;24.18;77.57
45621;BME280;31345;51.522;10.702;2023-09-18T10:44:49;98240.16;;;23.99;78.72
45621;BME280;31345;51.522;10.702;2023-09-18T10:47:23;98237.91;;;23.89;78.64
45621;BME280;31345;51.522;10.702;2023-09-18T10:49:56;98245.94;;;23.83;79.42
45621;BME280;31345;51.522;10.702;2023-09-18T10:52:30;98248.41;;;23.84;78.28
45621;BME280;31345;51.522;10.702;2023-09-18T10:55:03;98247.59;;;23.77;76.89
45621;BME280;31345;51.522;10.702;2023-09-18T10:57:36;98238.38;;;23.73;77.54
45621;BME280;31345;51.522;10.702;2023-09-18T11:00:11;98250.47;;;23.69;77.49
45621;BME280;31345;51.522;10.702;2023-09-18T11:02:49;98266.28;;;23.70;78.71
45621;BME280;31345;51.522;10.702;2023-09-18T11:05:29;98242.97;;;24.25;78.36
45621;BME280;31345;51.522;10.702;2023-09-18T11:08:25;98257.25;;;24.58;75.47
45621;BME280;31345;51.522;10.702;2023-09-18T11:11:00;98257.91;;;24.46;73.71
45621;BME280;31345;51.522;10.702;2023-09-18T11:13:34;98253.06;;;24.16;74.98
45621;BME280;31345;51.522;10.702;2023-09-18T11:16:13;98254.13;;;23.95;76.44
45621;BME280;31345;51.522;10.702;2023-09-18T11:18:47;98258.47;;;23.82;76.24
45621;BME280;31345;51.522;10.702;2023-09-18T11:21:25;98268.34;;;23.68;77.22
45621;BME280;31345;51.522;10.702;2023-09-18T11:24:00;98268.97;;;23.63;78.07
45621;BME280;31345;51.522;10.702;2023-09-18T11:26:30;98268.13;;;23.76;78.27
45621;BME280;31345;51.522;10.702;2023-09-18T11:29:04;98258.28;;;23.70;78.87
45621;BME280;31345;51.522;10.702;2023-09-18T11:31:45;98250.25;;;23.84;76.63
45621;BME280;31345;51.522;10.702;2023-09-18T11:34:22;98252.91;;;23.84;76.88
45621;BME280;31345;51.522;10.702;2023-09-18T11:36:55;98261.56;;;23.79;78.75
45621;BME280;31345;51.522;10.702;2023-09-18T11:39:37;98255.81;;;23.75;79.68
45621;BME280;31345;51.522;10.702;2023-09-18T11:42:12;98259.72;;;23.66;79.62
45621;BME280;31345;51.522;10.702;2023-09-18T11:44:46;98263.63;;;23.70;79.68
45621;BME280;31345;51.522;10.702;2023-09-18T11:47:23;98265.25;;;23.71;79.27
45621;BME280;31345;51.522;10.702;2023-09-18T11:52:30;98260.16;;;23.49;78.92
45621;BME280;31345;51.522;10.702;2023-09-18T11:55:06;98257.47;;;23.43;80.83
45621;BME280;31345;51.522;10.702;2023-09-18T11:57:46;98257.47;;;23.29;81.09
45621;BME280;31345;51.522;10.702;2023-09-18T12:00:26;98259.91;;;23.17;79.34
45621;BME280;31345;51.522;10.702;2023-09-18T12:03:13;98257.84;;;23.12;80.99
45621;BME280;31345;51.522;10.702;2023-09-18T12:05:49;98265.66;;;23.14;80.30
45621;BME280;31345;51.522;10.702;2023-09-18T12:08:24;98271.38;;;23.11;83.94
45621;BME280;31345;51.522;10.702;2023-09-18T12:11:00;98275.47;;;23.13;81.25
45621;BME280;31345;51.522;10.702;2023-09-18T12:13:37;98275.06;;;23.03;83.12
45621;BME280;31345;51.522;10.702;2023-09-18T12:16:11;98278.72;;;22.95;82.02
45621;BME280;31345;51.522;10.702;2023-09-18T12:18:45;98276.25;;;22.87;83.73
45621;BME280;31345;51.522;10.702;2023-09-18T12:21:19;98275.22;;;22.81;82.85
45621;BME280;31345;51.522;10.702;2023-09-18T12:23:53;98265.78;;;22.79;81.43
45621;BME280;31345;51.522;10.702;2023-09-18T12:26:27;98256.94;;;22.71;84.98
45621;BME280;31345;51.522;10.702;2023-09-18T12:29:02;98261.88;;;22.74;84.62
45621;BME280;31345;51.522;10.702;2023-09-18T12:31:35;98281.94;;;22.70;84.38
45621;BME280;31345;51.522;10.702;2023-09-18T12:34:14;98288.06;;;22.64;85.56
45621;BME280;31345;51.522;10.702;2023-09-18T12:36:47;98285.81;;;22.61;84.39
45621;BME280;31345;51.522;10.702;2023-09-18T12:39:21;98281.94;;;22.63;85.26
45621;BME280;31345;51.522;10.702;2023-09-18T12:41:55;98280.28;;;22.62;85.25
45621;BME280;31345;51.522;10.702;2023-09-18T12:44:28;98294.81;;;22.60;86.97
45621;BME280;31345;51.522;10.702;2023-09-18T12:47:01;98295.44;;;22.62;87.49
45621;BME280;31345;51.522;10.702;2023-09-18T12:49:35;98305.72;;;22.65;86.79
45621;BME280;31345;51.522;10.702;2023-09-18T12:52:09;98297.50;;;22.67;87.82
45621;BME280;31345;51.522;10.702;2023-09-18T12:54:43;98293.38;;;22.64;85.21
45621;BME280;31345;51.522;10.702;2023-09-18T12:57:18;98285.19;;;22.59;87.09
45621;BME280;31345;51.522;10.702;2023-09-18T12:59:51;98290.50;;;22.59;88.39
45621;BME280;31345;51.522;10.702;2023-09-18T13:02:26;98284.53;;;22.50;88.19
45621;BME280;31345;51.522;10.702;2023-09-18T13:04:58;98283.63;;;22.36;89.03
45621;BME280;31345;51.522;10.702;2023-09-18T13:07:31;98302.41;;;22.28;88.97
45621;BME280;31345;51.522;10.702;2023-09-18T13:10:09;98293.63;;;22.27;88.98
45621;BME280;31345;51.522;10.702;2023-09-18T13:12:42;98279.09;;;22.30;87.65
45621;BME280;31345;51.522;10.702;2023-09-18T13:15:24;98284.44;;;22.36;87.67
45621;BME280;31345;51.522;10.702;2023-09-18T13:17:59;98284.28;;;22.38;88.51
45621;BME280;31345;51.522;10.702;2023-09-18T13:20:32;98285.91;;;22.39;86.59